17MA weather

Long Hill Heliport
Leominster, Massachusetts, United States

Public forecast

Using degrees Fahrenheit for public forecast. Weather courtesy of forecast.io.

Closest aviation weather report (METAR) to Long Hill Heliport

Closest report is Fitchburg Municipal Airport, 3.1 nm (5.7 km) NNE. Retrieved 2020/01/19 04:38 UTC (0 seconds ago):

KFIT 190438Z AUTO 31003KT 1 1/2SM -SN BR OVC014 M08/M11 A2980 RMK AO2 P0005 T10831106

Closest aviation forecast (TAF) to Long Hill Heliport

Closest forecast is Worcester Regional Airport, 14.9 nm (27.6 km) SSW. Retrieved 2020-01-19 00:42 UTC (3 hours ago):

TAF KORH 182341Z 1900/1924 12006KT 3/4SM -SN BR OVC010 FM190300 18007KT 1/2SM SN FG OVC008 FM190500 20006KT 3SM -SHSN OVC008 FM190700 22007KT 5SM BR OVC008 WS020/23035KT FM190900 23006KT P6SM OVC008 FM191300 26009KT P6SM BKN090